createdAt,value
2019-03-24T00:01:45.913Z,99.90
2019-03-24T00:04:21.241Z,99.90
2019-03-24T00:06:53.748Z,99.90
2019-03-24T00:09:37.059Z,99.90
2019-03-24T00:12:09.801Z,99.90
2019-03-24T00:14:45.233Z,99.90
2019-03-24T00:17:17.899Z,99.90
2019-03-24T00:19:53.289Z,99.90
2019-03-24T00:22:26.105Z,99.90
2019-03-24T00:25:06.456Z,99.90
2019-03-24T00:27:38.990Z,99.90
2019-03-24T00:30:15.453Z,99.90
2019-03-24T00:32:48.150Z,99.90
2019-03-24T00:35:29.518Z,99.90
2019-03-24T00:38:02.950Z,99.90
2019-03-24T00:40:35.818Z,99.90
2019-03-24T00:43:08.483Z,99.90
2019-03-24T00:45:44.066Z,99.90
2019-03-24T00:48:16.586Z,99.90
2019-03-24T00:50:56.750Z,99.90
2019-03-24T00:53:29.210Z,99.90
2019-03-24T00:56:13.588Z,99.90
2019-03-24T00:58:46.028Z,99.90
2019-03-24T01:01:21.693Z,99.90
2019-03-24T01:03:55.413Z,99.90
2019-03-24T01:06:30.998Z,99.90
2019-03-24T01:09:04.273Z,99.90
2019-03-24T01:11:39.808Z,99.90
2019-03-24T01:14:12.526Z,99.90
2019-03-24T01:16:52.206Z,99.90
2019-03-24T01:19:24.829Z,99.90
2019-03-24T01:21:57.643Z,99.90
2019-03-24T01:24:30.231Z,99.90
2019-03-24T01:27:06.199Z,99.90
2019-03-24T01:29:38.714Z,99.90
2019-03-24T01:32:23.651Z,99.90
2019-03-24T01:34:56.310Z,99.90
2019-03-24T01:37:29.042Z,99.90
2019-03-24T01:40:01.661Z,99.90
2019-03-24T01:42:52.155Z,99.90
2019-03-24T01:45:24.690Z,99.90
2019-03-24T01:47:57.163Z,99.90
2019-03-24T01:50:29.701Z,99.90
2019-03-24T01:53:02.303Z,99.90
2019-03-24T01:55:34.841Z,99.90
2019-03-24T01:58:16.548Z,99.90
2019-03-24T02:00:49.396Z,99.90
2019-03-24T02:03:25.005Z,99.90
2019-03-24T02:05:57.803Z,99.90
2019-03-24T02:08:31.324Z,99.90
2019-03-24T02:11:04.154Z,99.90
2019-03-24T02:13:43.921Z,99.90
2019-03-24T02:16:16.517Z,99.90
2019-03-24T02:18:49.031Z,99.90
2019-03-24T02:21:21.795Z,99.90
2019-03-24T02:24:04.523Z,99.90
2019-03-24T02:26:37.008Z,99.90
2019-03-24T02:29:18.541Z,99.90
2019-03-24T02:31:50.929Z,99.90
2019-03-24T02:34:25.635Z,99.90
2019-03-24T02:36:58.716Z,99.90
2019-03-24T02:39:31.421Z,99.90
2019-03-24T02:42:04.524Z,99.90
2019-03-24T02:44:45.041Z,99.90
2019-03-24T02:47:17.623Z,99.90
2019-03-24T02:49:59.184Z,99.90
2019-03-24T02:52:31.423Z,99.90
2019-03-24T02:55:03.954Z,99.90
2019-03-24T02:57:36.462Z,99.90
2019-03-24T03:00:17.701Z,99.90
2019-03-24T03:02:50.573Z,99.90
2019-03-24T03:05:23.167Z,99.90
2019-03-24T03:07:55.574Z,99.90
2019-03-24T03:10:38.914Z,99.90
2019-03-24T03:13:11.886Z,99.90
2019-03-24T03:15:47.168Z,99.90
2019-03-24T03:18:19.746Z,99.90
2019-03-24T03:20:55.105Z,99.90
2019-03-24T03:23:27.677Z,99.90
2019-03-24T03:26:08.111Z,99.90
2019-03-24T03:28:41.094Z,99.90
2019-03-24T03:31:20.083Z,99.90
2019-03-24T03:33:53.417Z,99.90
2019-03-24T03:36:28.945Z,99.90
2019-03-24T03:39:01.387Z,99.90
2019-03-24T03:41:37.194Z,99.90
2019-03-24T03:44:09.626Z,99.90
2019-03-24T03:46:52.375Z,99.90
2019-03-24T03:49:19.341Z,99.90
2019-03-24T03:51:57.103Z,99.90
2019-03-24T03:54:29.535Z,99.90
2019-03-24T03:57:09.903Z,99.90
2019-03-24T03:59:42.390Z,99.90
2019-03-24T04:02:22.303Z,99.90
2019-03-24T04:04:54.845Z,99.90
2019-03-24T04:07:27.334Z,99.90
2019-03-24T04:09:59.739Z,99.90
2019-03-24T04:12:41.448Z,99.90
2019-03-24T04:15:14.137Z,99.90
2019-03-24T04:17:46.695Z,99.90
2019-03-24T04:20:19.546Z,99.90
2019-03-24T04:23:04.520Z,99.90
2019-03-24T04:25:36.955Z,99.90
2019-03-24T04:28:16.818Z,99.90
2019-03-24T04:30:49.267Z,99.90
2019-03-24T04:33:21.729Z,99.90
2019-03-24T04:35:54.254Z,99.90
2019-03-24T04:38:30.557Z,99.90
2019-03-24T04:41:03.100Z,99.90
2019-03-24T04:43:45.638Z,99.90
2019-03-24T04:46:18.070Z,99.90
2019-03-24T04:48:50.482Z,99.90
2019-03-24T04:51:22.853Z,99.90
2019-03-24T04:54:02.501Z,99.90
2019-03-24T04:56:36.078Z,99.90
2019-03-24T04:59:13.045Z,99.90
2019-03-24T05:01:45.613Z,99.90
2019-03-24T05:04:20.821Z,99.90
2019-03-24T05:06:54.063Z,99.90
2019-03-24T05:09:34.000Z,99.90
2019-03-24T05:12:06.442Z,99.90
2019-03-24T05:14:46.008Z,99.90
2019-03-24T05:17:26.712Z,99.90
2019-03-24T05:19:52.577Z,99.90
2019-03-24T05:22:24.771Z,99.90
2019-03-24T05:25:06.556Z,99.90
2019-03-24T05:27:39.076Z,99.90
2019-03-24T05:30:11.561Z,99.90
2019-03-24T05:32:43.997Z,99.90
2019-03-24T05:35:22.541Z,99.90
2019-03-24T05:37:55.276Z,99.90
2019-03-24T05:40:37.542Z,99.90
2019-03-24T05:43:10.003Z,99.90
2019-03-24T05:45:47.007Z,99.90
2019-03-24T05:48:19.640Z,99.90
2019-03-24T05:50:55.619Z,99.90
2019-03-24T05:53:28.061Z,99.90
2019-03-24T05:56:04.592Z,99.90
2019-03-24T05:58:37.019Z,99.90
2019-03-24T06:01:14.666Z,99.90
2019-03-24T06:03:47.269Z,99.90
2019-03-24T06:06:30.169Z,99.90
2019-03-24T06:09:02.631Z,99.90
2019-03-24T06:11:38.315Z,99.90
2019-03-24T06:14:11.680Z,99.90
2019-03-24T06:16:48.131Z,99.90
2019-03-24T06:19:21.249Z,99.90
2019-03-24T06:22:01.113Z,99.90
2019-03-24T06:24:33.639Z,99.90
2019-03-24T06:27:09.137Z,99.90
2019-03-24T06:29:41.501Z,99.90
2019-03-24T06:32:21.312Z,99.90
2019-03-24T06:34:53.792Z,99.90
2019-03-24T06:37:33.790Z,99.90
2019-03-24T06:40:06.550Z,99.90
2019-03-24T06:42:41.873Z,99.90
2019-03-24T06:45:14.527Z,99.90
2019-03-24T06:47:57.555Z,99.90
2019-03-24T06:50:24.729Z,99.90
2019-03-24T06:52:57.221Z,99.90
2019-03-24T06:55:29.870Z,99.90
2019-03-24T06:58:06.172Z,99.90
2019-03-24T07:00:38.690Z,99.90
2019-03-24T07:03:29.960Z,99.90
2019-03-24T07:06:02.688Z,99.90
2019-03-24T07:08:35.985Z,99.90
2019-03-24T07:11:13.481Z,99.90
2019-03-24T07:13:42.792Z,99.90
2019-03-24T07:16:15.448Z,99.90
2019-03-24T07:18:51.984Z,99.90
2019-03-24T07:21:24.750Z,99.90
2019-03-24T07:24:06.582Z,99.90
2019-03-24T07:26:39.884Z,99.90
2019-03-24T07:29:12.693Z,99.90
2019-03-24T07:31:45.484Z,98.10
2019-03-24T07:34:22.422Z,99.80
2019-03-24T07:36:55.768Z,99.10
2019-03-24T07:39:38.013Z,98.70
2019-03-24T07:42:11.019Z,98.60
2019-03-24T07:44:43.965Z,97.40
2019-03-24T07:47:17.294Z,96.20
2019-03-24T07:52:29.265Z,95.10
2019-03-24T07:55:08.819Z,95.00
2019-03-24T07:57:42.279Z,95.20
2019-03-24T08:00:38.344Z,94.20
2019-03-24T08:03:11.832Z,92.80
2019-03-24T08:05:45.100Z,93.10
2019-03-24T08:08:17.688Z,92.30
2019-03-24T08:10:50.235Z,92.00
2019-03-24T08:13:23.686Z,90.10
2019-03-24T08:15:56.679Z,90.30
2019-03-24T08:18:30.399Z,88.40
2019-03-24T08:21:03.341Z,86.30
2019-03-24T08:23:35.981Z,84.00
2019-03-24T08:26:08.684Z,84.30
2019-03-24T08:28:42.171Z,81.20
2019-03-24T08:31:15.215Z,77.20
2019-03-24T08:33:47.937Z,74.40
2019-03-24T08:36:21.397Z,73.30
2019-03-24T08:38:54.701Z,71.00
2019-03-24T08:41:28.843Z,69.20
2019-03-24T08:44:01.794Z,67.80
2019-03-24T08:46:34.851Z,66.40
2019-03-24T08:49:07.429Z,66.50
2019-03-24T08:51:40.295Z,65.70
2019-03-24T08:54:14.018Z,64.10
2019-03-24T08:56:48.074Z,61.10
2019-03-24T08:59:21.107Z,62.70
2019-03-24T09:01:53.632Z,60.90
2019-03-24T09:04:26.550Z,60.20
2019-03-24T09:07:00.286Z,59.90
2019-03-24T09:09:33.387Z,57.60
2019-03-24T09:12:07.077Z,54.20
2019-03-24T09:14:39.891Z,54.80
2019-03-24T09:17:12.807Z,53.10
2019-03-24T09:19:48.966Z,49.50
2019-03-24T09:22:22.098Z,48.50
2019-03-24T09:25:02.142Z,49.10
2019-03-24T09:27:34.662Z,49.10
2019-03-24T09:30:09.807Z,48.90
2019-03-24T09:32:42.785Z,47.70
2019-03-24T09:35:16.557Z,48.90
2019-03-24T09:37:49.432Z,48.30
2019-03-24T09:40:29.708Z,48.70
2019-03-24T09:43:03.922Z,47.30
2019-03-24T09:45:37.492Z,45.70
2019-03-24T09:48:10.821Z,45.20
2019-03-24T09:50:45.329Z,45.50
2019-03-24T09:53:18.116Z,44.00
2019-03-24T09:55:52.192Z,43.30
2019-03-24T09:58:25.307Z,42.70
2019-03-24T10:00:57.866Z,42.90
2019-03-24T10:03:31.860Z,42.90
2019-03-24T10:06:04.718Z,42.50
2019-03-24T10:08:46.769Z,42.30
2019-03-24T10:11:12.475Z,42.00
2019-03-24T10:13:45.090Z,42.40
2019-03-24T10:16:17.814Z,41.20
2019-03-24T10:18:50.653Z,41.90
2019-03-24T10:21:23.644Z,42.00
2019-03-24T10:23:56.882Z,42.10
2019-03-24T10:26:29.897Z,41.80
2019-03-24T10:29:03.048Z,41.30
2019-03-24T10:31:35.885Z,41.50
2019-03-24T10:34:11.371Z,41.80
2019-03-24T10:36:45.064Z,41.20
2019-03-24T10:39:21.988Z,40.80
2019-03-24T10:41:55.021Z,40.80
2019-03-24T10:44:30.970Z,40.60
2019-03-24T10:47:04.662Z,40.70
2019-03-24T10:49:41.429Z,40.90
2019-03-24T10:52:14.502Z,40.90
2019-03-24T10:54:51.623Z,40.50
2019-03-24T10:57:25.226Z,40.50
2019-03-24T11:00:04.355Z,39.10
2019-03-24T11:02:37.633Z,39.10
2019-03-24T11:05:12.766Z,38.90
2019-03-24T11:07:46.381Z,39.20
2019-03-24T11:10:21.912Z,39.00
2019-03-24T11:12:55.473Z,39.10
2019-03-24T11:15:35.794Z,37.80
2019-03-24T11:18:09.695Z,38.00
2019-03-24T11:20:45.326Z,37.90
2019-03-24T11:23:18.063Z,38.10
2019-03-24T11:25:53.924Z,37.70
2019-03-24T11:28:26.868Z,37.40
2019-03-24T11:31:03.605Z,36.80
2019-03-24T11:33:37.912Z,36.30
2019-03-24T11:36:15.138Z,36.70
2019-03-24T11:38:49.632Z,36.80
2019-03-24T11:41:24.128Z,37.30
2019-03-24T11:43:56.903Z,37.30
2019-03-24T11:46:29.530Z,37.40
2019-03-24T11:49:02.821Z,36.60
2019-03-24T11:51:36.081Z,36.60
2019-03-24T11:54:09.214Z,36.10
2019-03-24T11:56:42.503Z,35.90
2019-03-24T11:59:15.460Z,36.40
2019-03-24T12:01:48.314Z,38.60
2019-03-24T12:04:21.514Z,37.70
2019-03-24T12:06:54.361Z,37.60
2019-03-24T12:09:28.379Z,37.00
2019-03-24T12:12:01.170Z,36.80
2019-03-24T12:14:33.962Z,35.70
2019-03-24T12:17:06.865Z,35.20
2019-03-24T12:19:39.949Z,34.30
2019-03-24T12:22:14.490Z,34.60
2019-03-24T12:24:47.061Z,34.90
2019-03-24T12:27:19.844Z,33.80
2019-03-24T12:29:52.452Z,33.40
2019-03-24T12:32:25.239Z,33.30
2019-03-24T12:34:58.764Z,33.00
2019-03-24T12:37:32.927Z,34.00
2019-03-24T12:40:06.346Z,34.10
2019-03-24T12:42:39.119Z,33.50
2019-03-24T12:45:12.857Z,32.70
2019-03-24T12:47:46.285Z,32.90
2019-03-24T12:50:30.661Z,32.70
2019-03-24T12:52:53.754Z,33.10
2019-03-24T12:55:26.918Z,34.00
2019-03-24T12:58:00.328Z,34.10
2019-03-24T13:00:41.589Z,34.60
2019-03-24T13:03:14.537Z,34.40
2019-03-24T13:05:47.388Z,34.50
2019-03-24T13:08:21.374Z,34.80
2019-03-24T13:10:55.012Z,34.10
2019-03-24T13:13:27.909Z,34.20
2019-03-24T13:16:00.350Z,34.40
2019-03-24T13:18:32.964Z,34.40
2019-03-24T13:21:05.798Z,33.80
2019-03-24T13:23:42.766Z,34.40
2019-03-24T13:26:16.231Z,34.20
2019-03-24T13:28:49.147Z,33.90
2019-03-24T13:31:21.908Z,33.80
2019-03-24T13:33:54.710Z,34.40
2019-03-24T13:36:27.604Z,33.80
2019-03-24T13:39:00.928Z,33.50
2019-03-24T13:41:33.522Z,33.80
2019-03-24T13:44:09.281Z,33.20
2019-03-24T13:46:42.188Z,33.40
2019-03-24T13:49:19.064Z,33.20
2019-03-24T13:51:51.940Z,33.70
2019-03-24T13:54:28.861Z,34.20
2019-03-24T13:57:02.018Z,34.00
2019-03-24T13:59:38.782Z,33.90
2019-03-24T14:02:11.938Z,35.40
2019-03-24T14:04:50.691Z,35.30
2019-03-24T14:07:23.314Z,34.90
2019-03-24T14:09:59.895Z,34.40
2019-03-24T14:12:33.055Z,34.20
2019-03-24T14:15:14.909Z,34.10
2019-03-24T14:17:49.202Z,34.20
2019-03-24T14:20:22.300Z,33.70
2019-03-24T14:22:55.561Z,34.80
2019-03-24T14:25:30.944Z,35.10
2019-03-24T14:28:03.466Z,34.80
2019-03-24T14:30:54.752Z,34.90
2019-03-24T14:33:27.527Z,35.10
2019-03-24T14:36:00.372Z,35.60
2019-03-24T14:38:33.307Z,35.60
2019-03-24T14:41:07.147Z,35.30
2019-03-24T14:43:39.803Z,35.10
2019-03-24T14:46:12.388Z,35.50
2019-03-24T14:48:46.082Z,39.00
2019-03-24T14:51:21.224Z,39.10
2019-03-24T14:53:57.167Z,39.70
2019-03-24T14:56:38.453Z,39.30
2019-03-24T14:59:10.976Z,39.20
2019-03-24T15:01:44.032Z,38.60
2019-03-24T15:04:19.834Z,40.40
2019-03-24T15:06:58.387Z,39.90
2019-03-24T15:09:31.068Z,40.40
2019-03-24T15:12:04.361Z,43.30
2019-03-24T15:14:39.125Z,45.30
2019-03-24T15:17:14.599Z,46.90
2019-03-24T15:19:47.372Z,46.70
2019-03-24T15:22:31.014Z,48.70
2019-03-24T15:25:05.244Z,50.60
2019-03-24T15:27:38.233Z,50.10
2019-03-24T15:30:12.631Z,50.00
2019-03-24T15:32:45.763Z,50.30
2019-03-24T15:35:20.599Z,51.00
2019-03-24T15:38:07.814Z,50.30
2019-03-24T15:40:30.638Z,50.20
2019-03-24T15:43:07.503Z,51.90
2019-03-24T15:45:41.385Z,52.30
2019-03-24T15:48:14.535Z,52.90
2019-03-24T15:50:47.321Z,52.60
2019-03-24T15:53:32.876Z,52.50
2019-03-24T15:56:06.428Z,51.90
2019-03-24T15:58:42.399Z,53.00
2019-03-24T16:01:15.003Z,52.60
2019-03-24T16:03:51.092Z,53.30
2019-03-24T16:06:24.858Z,54.00
2019-03-24T16:09:04.347Z,53.60
2019-03-24T16:11:37.128Z,53.70
2019-03-24T16:14:09.777Z,53.20
2019-03-24T16:16:45.459Z,54.00
2019-03-24T16:19:29.033Z,54.40
2019-03-24T16:22:02.967Z,53.40
2019-03-24T16:24:36.007Z,53.40
2019-03-24T16:27:10.014Z,53.90
2019-03-24T16:29:43.098Z,53.80
2019-03-24T16:32:16.143Z,53.90
2019-03-24T16:34:56.133Z,53.30
2019-03-24T16:37:29.942Z,53.00
2019-03-24T16:40:06.830Z,53.70
2019-03-24T16:42:39.854Z,53.70
2019-03-24T16:45:12.821Z,54.10
2019-03-24T16:47:47.063Z,54.60
2019-03-24T16:50:24.229Z,55.00
2019-03-24T16:52:57.376Z,55.20
2019-03-24T16:55:30.409Z,56.10
2019-03-24T16:58:03.368Z,56.00
2019-03-24T17:00:42.510Z,56.30
2019-03-24T17:03:15.852Z,56.70
2019-03-24T17:05:51.809Z,57.10
2019-03-24T17:08:24.957Z,56.70
2019-03-24T17:11:01.333Z,57.20
2019-03-24T17:13:34.910Z,57.30
2019-03-24T17:16:10.779Z,57.90
2019-03-24T17:18:43.654Z,58.10
2019-03-24T17:21:35.054Z,58.40
2019-03-24T17:24:07.725Z,58.30
2019-03-24T17:26:40.606Z,58.60
2019-03-24T17:29:13.510Z,58.70
2019-03-24T17:31:46.516Z,58.60
2019-03-24T17:34:20.136Z,58.70
2019-03-24T17:36:53.136Z,58.60
2019-03-24T17:39:27.251Z,58.90
2019-03-24T17:42:06.030Z,58.80
2019-03-24T17:44:39.834Z,59.60
2019-03-24T17:47:13.741Z,59.80
2019-03-24T17:49:47.508Z,59.10
2019-03-24T17:52:20.513Z,59.30
2019-03-24T17:54:54.254Z,60.00
2019-03-24T17:57:27.623Z,60.90
2019-03-24T18:00:00.575Z,60.80
2019-03-24T18:02:33.661Z,61.40
2019-03-24T18:05:07.262Z,60.20
2019-03-24T18:07:40.338Z,59.80
2019-03-24T18:10:13.822Z,59.80
2019-03-24T18:12:46.833Z,59.80
2019-03-24T18:15:21.601Z,59.90
2019-03-24T18:17:55.017Z,59.80
2019-03-24T18:20:34.204Z,59.80
2019-03-24T18:23:07.070Z,59.60
2019-03-24T18:25:40.722Z,59.70
2019-03-24T18:28:16.099Z,61.10
2019-03-24T18:30:55.898Z,61.10
2019-03-24T18:33:29.017Z,61.60
2019-03-24T18:36:02.808Z,61.60
2019-03-24T18:38:36.306Z,61.50
2019-03-24T18:41:09.679Z,60.90
2019-03-24T18:43:42.696Z,60.50
2019-03-24T18:46:15.505Z,61.90
2019-03-24T18:48:48.317Z,61.10
2019-03-24T18:51:22.245Z,63.20
2019-03-24T18:53:56.062Z,64.20
2019-03-24T18:56:28.640Z,64.20
2019-03-24T18:59:02.666Z,64.60
2019-03-24T19:01:36.024Z,64.90
2019-03-24T19:04:08.807Z,64.70
2019-03-24T19:06:41.875Z,65.50
2019-03-24T19:09:15.244Z,65.40
2019-03-24T19:11:48.857Z,65.90
2019-03-24T19:14:21.621Z,66.70
2019-03-24T19:16:55.226Z,67.30
2019-03-24T19:19:28.007Z,68.40
2019-03-24T19:22:00.933Z,67.20
2019-03-24T19:24:34.326Z,68.70
2019-03-24T19:27:06.869Z,68.90
2019-03-24T19:29:39.533Z,69.80
2019-03-24T19:32:13.058Z,70.60
2019-03-24T19:34:46.360Z,71.50
2019-03-24T19:37:18.804Z,72.70
2019-03-24T19:39:52.026Z,73.90
2019-03-24T19:42:25.571Z,74.90
2019-03-24T19:44:58.764Z,76.00
2019-03-24T19:47:31.796Z,76.80
2019-03-24T19:50:04.943Z,77.30
2019-03-24T19:52:44.559Z,78.60
2019-03-24T19:55:13.798Z,79.30
2019-03-24T19:57:47.485Z,81.10
2019-03-24T20:00:20.548Z,82.30
2019-03-24T20:02:54.237Z,83.20
2019-03-24T20:05:27.624Z,84.60
2019-03-24T20:08:00.987Z,86.10
2019-03-24T20:10:35.098Z,87.50
2019-03-24T20:13:08.417Z,89.20
2019-03-24T20:15:41.515Z,90.40
2019-03-24T20:18:15.356Z,90.90
2019-03-24T20:20:49.036Z,91.40
2019-03-24T20:23:22.496Z,91.90
2019-03-24T20:25:56.086Z,92.20
2019-03-24T20:28:37.465Z,92.50
2019-03-24T20:31:10.965Z,92.70
2019-03-24T20:33:48.725Z,93.50
2019-03-24T20:36:22.102Z,94.30
2019-03-24T20:38:59.898Z,95.10
2019-03-24T20:41:33.221Z,95.80
2019-03-24T20:44:11.243Z,96.40
2019-03-24T20:46:50.351Z,96.90
2019-03-24T20:49:21.060Z,97.50
2019-03-24T20:51:54.281Z,98.20
2019-03-24T20:54:31.190Z,98.90
2019-03-24T20:57:04.613Z,99.60
2019-03-24T20:59:38.973Z,99.90
2019-03-24T21:02:11.784Z,99.90
2019-03-24T21:04:52.303Z,99.90
2019-03-24T21:07:25.224Z,99.90
2019-03-24T21:09:58.597Z,99.90
2019-03-24T21:12:31.632Z,99.90
2019-03-24T21:15:11.279Z,99.90
2019-03-24T21:17:44.207Z,99.90
2019-03-24T21:20:23.524Z,99.90
2019-03-24T21:22:57.183Z,99.90
2019-03-24T21:25:33.470Z,99.90
2019-03-24T21:28:06.580Z,99.90
2019-03-24T21:30:43.788Z,99.90
2019-03-24T21:33:18.404Z,99.90
2019-03-24T21:35:51.257Z,99.90
2019-03-24T21:38:24.579Z,99.90
2019-03-24T21:40:58.023Z,99.90
2019-03-24T21:43:31.539Z,99.90
2019-03-24T21:46:13.953Z,99.90
2019-03-24T21:48:48.347Z,99.90
2019-03-24T21:51:21.911Z,99.90
2019-03-24T21:53:56.033Z,99.90
2019-03-24T21:56:35.857Z,99.90
2019-03-24T21:59:09.059Z,99.90
2019-03-24T22:01:45.167Z,99.90
2019-03-24T22:04:20.782Z,99.90
2019-03-24T22:06:53.758Z,99.90
2019-03-24T22:09:26.773Z,99.90
2019-03-24T22:12:06.083Z,99.90
2019-03-24T22:14:38.742Z,99.90
2019-03-24T22:17:15.090Z,99.90
2019-03-24T22:19:47.803Z,99.90
2019-03-24T22:22:21.041Z,99.90
2019-03-24T22:24:53.782Z,99.90
2019-03-24T22:27:38.011Z,99.90
2019-03-24T22:30:11.132Z,99.90
2019-03-24T22:32:47.158Z,99.90
2019-03-24T22:35:20.473Z,99.90
2019-03-24T22:37:56.247Z,99.90
2019-03-24T22:40:29.936Z,99.90
2019-03-24T22:43:04.311Z,99.90
2019-03-24T22:45:36.972Z,99.90
2019-03-24T22:48:10.038Z,99.90
2019-03-24T22:50:43.148Z,99.90
2019-03-24T22:53:16.293Z,99.90
2019-03-24T22:55:48.921Z,99.90
2019-03-24T22:58:21.724Z,99.90
2019-03-24T23:00:57.171Z,99.90
2019-03-24T23:03:30.350Z,99.90
2019-03-24T23:06:02.992Z,99.90
2019-03-24T23:08:35.945Z,99.90
2019-03-24T23:11:10.149Z,99.90
2019-03-24T23:13:42.711Z,99.90
2019-03-24T23:16:15.448Z,99.90
2019-03-24T23:18:48.484Z,99.90
2019-03-24T23:21:21.299Z,99.90
2019-03-24T23:23:54.291Z,99.90
2019-03-24T23:26:28.474Z,99.90
2019-03-24T23:29:02.249Z,99.90
2019-03-24T23:31:34.862Z,99.90
2019-03-24T23:34:08.586Z,99.90
2019-03-24T23:36:41.348Z,99.90
2019-03-24T23:39:16.709Z,99.90
2019-03-24T23:41:49.509Z,99.90
2019-03-24T23:44:24.068Z,99.90
2019-03-24T23:46:56.835Z,99.90
2019-03-24T23:49:29.549Z,99.90
2019-03-24T23:52:02.272Z,99.90
2019-03-24T23:54:35.159Z,99.90
2019-03-24T23:57:07.719Z,99.90
2019-03-24T23:59:40.313Z,99.90
